sensor_id;sensor_type;location;lat;lon;timestamp;P1;durP1;ratioP1;P2;durP2;ratioP2
30307;SDS011;17114;52.314;8.910;2023-08-06T00:01:00;10.50;;;7.88;;
30307;SDS011;17114;52.314;8.910;2023-08-06T00:03:28;10.25;;;7.15;;
30307;SDS011;17114;52.314;8.910;2023-08-06T00:05:55;14.05;;;7.40;;
30307;SDS011;17114;52.314;8.910;2023-08-06T00:08:22;11.63;;;8.02;;
30307;SDS011;17114;52.314;8.910;2023-08-06T00:10:49;10.63;;;7.32;;
30307;SDS011;17114;52.314;8.910;2023-08-06T00:13:16;10.75;;;7.65;;
30307;SDS011;17114;52.314;8.910;2023-08-06T00:15:43;13.27;;;7.25;;
30307;SDS011;17114;52.314;8.910;2023-08-06T00:18:10;9.40;;;6.78;;
30307;SDS011;17114;52.314;8.910;2023-08-06T00:20:40;8.57;;;7.00;;
30307;SDS011;17114;52.314;8.910;2023-08-06T00:23:07;8.68;;;6.45;;
30307;SDS011;17114;52.314;8.910;2023-08-06T00:25:35;9.65;;;6.50;;
30307;SDS011;17114;52.314;8.910;2023-08-06T00:28:02;9.85;;;6.63;;
30307;SDS011;17114;52.314;8.910;2023-08-06T00:30:30;12.05;;;7.22;;
30307;SDS011;17114;52.314;8.910;2023-08-06T00:32:57;10.32;;;6.68;;
30307;SDS011;17114;52.314;8.910;2023-08-06T00:35:25;8.95;;;6.65;;
30307;SDS011;17114;52.314;8.910;2023-08-06T00:37:51;10.10;;;6.88;;
30307;SDS011;17114;52.314;8.910;2023-08-06T00:40:20;9.15;;;6.18;;
30307;SDS011;17114;52.314;8.910;2023-08-06T00:42:48;9.65;;;6.65;;
30307;SDS011;17114;52.314;8.910;2023-08-06T00:45:15;8.15;;;7.03;;
30307;SDS011;17114;52.314;8.910;2023-08-06T00:47:42;9.88;;;6.53;;
30307;SDS011;17114;52.314;8.910;2023-08-06T00:50:10;9.73;;;6.63;;
30307;SDS011;17114;52.314;8.910;2023-08-06T00:52:37;7.53;;;5.93;;
30307;SDS011;17114;52.314;8.910;2023-08-06T00:55:04;9.52;;;6.13;;
30307;SDS011;17114;52.314;8.910;2023-08-06T00:57:32;8.50;;;6.78;;
30307;SDS011;17114;52.314;8.910;2023-08-06T00:59:59;7.95;;;5.82;;
30307;SDS011;17114;52.314;8.910;2023-08-06T01:02:26;8.30;;;6.05;;
30307;SDS011;17114;52.314;8.910;2023-08-06T01:04:54;7.85;;;5.95;;
30307;SDS011;17114;52.314;8.910;2023-08-06T01:15:35;7.78;;;5.85;;
30307;SDS011;17114;52.314;8.910;2023-08-06T01:18:07;10.20;;;6.07;;
30307;SDS011;17114;52.314;8.910;2023-08-06T01:20:35;10.57;;;6.18;;
30307;SDS011;17114;52.314;8.910;2023-08-06T01:23:02;9.32;;;5.68;;
30307;SDS011;17114;52.314;8.910;2023-08-06T01:26:19;10.32;;;6.53;;
30307;SDS011;17114;52.314;8.910;2023-08-06T01:28:23;10.05;;;6.78;;
30307;SDS011;17114;52.314;8.910;2023-08-06T01:31:18;9.90;;;6.82;;
30307;SDS011;17114;52.314;8.910;2023-08-06T01:33:58;10.80;;;6.85;;
30307;SDS011;17114;52.314;8.910;2023-08-06T01:36:27;10.07;;;6.50;;
30307;SDS011;17114;52.314;8.910;2023-08-06T01:38:54;7.93;;;6.00;;
30307;SDS011;17114;52.314;8.910;2023-08-06T01:41:21;8.05;;;6.50;;
30307;SDS011;17114;52.314;8.910;2023-08-06T01:43:49;8.00;;;6.30;;
30307;SDS011;17114;52.314;8.910;2023-08-06T01:46:16;8.75;;;6.93;;
30307;SDS011;17114;52.314;8.910;2023-08-06T01:48:44;11.07;;;6.60;;
30307;SDS011;17114;52.314;8.910;2023-08-06T01:51:11;8.15;;;6.28;;
30307;SDS011;17114;52.314;8.910;2023-08-06T01:53:38;8.52;;;5.90;;
30307;SDS011;17114;52.314;8.910;2023-08-06T01:56:05;7.85;;;6.00;;
30307;SDS011;17114;52.314;8.910;2023-08-06T01:58:32;7.43;;;5.68;;
30307;SDS011;17114;52.314;8.910;2023-08-06T02:01:00;10.43;;;6.55;;
30307;SDS011;17114;52.314;8.910;2023-08-06T02:03:28;9.10;;;5.82;;
30307;SDS011;17114;52.314;8.910;2023-08-06T02:05:55;6.78;;;6.00;;
30307;SDS011;17114;52.314;8.910;2023-08-06T02:08:23;7.93;;;5.70;;
30307;SDS011;17114;52.314;8.910;2023-08-06T02:10:49;8.48;;;5.43;;
30307;SDS011;17114;52.314;8.910;2023-08-06T02:13:16;9.25;;;4.95;;
30307;SDS011;17114;52.314;8.910;2023-08-06T02:15:44;5.75;;;4.65;;
30307;SDS011;17114;52.314;8.910;2023-08-06T02:18:14;7.20;;;5.10;;
30307;SDS011;17114;52.314;8.910;2023-08-06T02:20:41;7.32;;;5.38;;
30307;SDS011;17114;52.314;8.910;2023-08-06T02:23:09;6.78;;;5.05;;
30307;SDS011;17114;52.314;8.910;2023-08-06T02:25:35;7.07;;;4.60;;
30307;SDS011;17114;52.314;8.910;2023-08-06T02:28:03;6.78;;;4.95;;
30307;SDS011;17114;52.314;8.910;2023-08-06T02:30:30;13.30;;;5.07;;
30307;SDS011;17114;52.314;8.910;2023-08-06T02:32:57;5.65;;;4.55;;
30307;SDS011;17114;52.314;8.910;2023-08-06T02:35:24;8.50;;;4.30;;
30307;SDS011;17114;52.314;8.910;2023-08-06T02:37:51;9.15;;;4.32;;
30307;SDS011;17114;52.314;8.910;2023-08-06T02:40:18;8.65;;;4.70;;
30307;SDS011;17114;52.314;8.910;2023-08-06T02:42:45;7.18;;;4.53;;
30307;SDS011;17114;52.314;8.910;2023-08-06T02:45:12;5.72;;;4.78;;
30307;SDS011;17114;52.314;8.910;2023-08-06T02:47:39;6.07;;;4.93;;
30307;SDS011;17114;52.314;8.910;2023-08-06T02:50:06;7.35;;;4.70;;
30307;SDS011;17114;52.314;8.910;2023-08-06T02:52:33;8.93;;;4.70;;
30307;SDS011;17114;52.314;8.910;2023-08-06T02:55:00;8.48;;;5.40;;
30307;SDS011;17114;52.314;8.910;2023-08-06T02:57:27;8.65;;;5.53;;
30307;SDS011;17114;52.314;8.910;2023-08-06T02:59:54;9.68;;;5.20;;
30307;SDS011;17114;52.314;8.910;2023-08-06T03:02:21;6.63;;;4.57;;
30307;SDS011;17114;52.314;8.910;2023-08-06T03:04:48;7.60;;;5.03;;
30307;SDS011;17114;52.314;8.910;2023-08-06T03:07:16;8.82;;;5.07;;
30307;SDS011;17114;52.314;8.910;2023-08-06T03:09:43;6.00;;;4.70;;
30307;SDS011;17114;52.314;8.910;2023-08-06T03:12:10;8.30;;;4.90;;
30307;SDS011;17114;52.314;8.910;2023-08-06T03:14:37;7.25;;;4.70;;
30307;SDS011;17114;52.314;8.910;2023-08-06T03:17:04;9.85;;;4.90;;
30307;SDS011;17114;52.314;8.910;2023-08-06T03:19:31;10.45;;;4.70;;
30307;SDS011;17114;52.314;8.910;2023-08-06T03:21:58;8.32;;;4.55;;
30307;SDS011;17114;52.314;8.910;2023-08-06T03:24:27;8.30;;;5.25;;
30307;SDS011;17114;52.314;8.910;2023-08-06T03:26:54;6.57;;;4.47;;
30307;SDS011;17114;52.314;8.910;2023-08-06T03:29:23;14.75;;;4.80;;
30307;SDS011;17114;52.314;8.910;2023-08-06T03:31:51;5.70;;;4.60;;
30307;SDS011;17114;52.314;8.910;2023-08-06T03:34:19;7.20;;;4.32;;
30307;SDS011;17114;52.314;8.910;2023-08-06T03:36:46;12.55;;;4.20;;
30307;SDS011;17114;52.314;8.910;2023-08-06T03:39:13;5.88;;;4.35;;
30307;SDS011;17114;52.314;8.910;2023-08-06T03:41:40;5.22;;;3.83;;
30307;SDS011;17114;52.314;8.910;2023-08-06T03:44:07;3.75;;;3.33;;
30307;SDS011;17114;52.314;8.910;2023-08-06T03:46:34;5.63;;;4.30;;
30307;SDS011;17114;52.314;8.910;2023-08-06T03:49:01;5.28;;;4.20;;
30307;SDS011;17114;52.314;8.910;2023-08-06T03:51:28;7.15;;;4.45;;
30307;SDS011;17114;52.314;8.910;2023-08-06T03:53:55;4.55;;;4.00;;
30307;SDS011;17114;52.314;8.910;2023-08-06T03:56:22;5.45;;;4.28;;
30307;SDS011;17114;52.314;8.910;2023-08-06T03:58:50;5.75;;;4.40;;
30307;SDS011;17114;52.314;8.910;2023-08-06T04:01:17;10.85;;;4.25;;
30307;SDS011;17114;52.314;8.910;2023-08-06T04:03:44;6.32;;;4.63;;
30307;SDS011;17114;52.314;8.910;2023-08-06T04:06:11;8.45;;;4.97;;
30307;SDS011;17114;52.314;8.910;2023-08-06T04:08:38;8.55;;;4.57;;
30307;SDS011;17114;52.314;8.910;2023-08-06T04:11:05;6.15;;;4.47;;
30307;SDS011;17114;52.314;8.910;2023-08-06T04:13:32;8.00;;;4.57;;
30307;SDS011;17114;52.314;8.910;2023-08-06T04:16:02;9.32;;;4.95;;
30307;SDS011;17114;52.314;8.910;2023-08-06T04:18:30;7.82;;;4.72;;
30307;SDS011;17114;52.314;8.910;2023-08-06T04:20:57;6.20;;;4.55;;
30307;SDS011;17114;52.314;8.910;2023-08-06T04:23:24;14.18;;;5.15;;
30307;SDS011;17114;52.314;8.910;2023-08-06T04:25:51;9.23;;;5.65;;
30307;SDS011;17114;52.314;8.910;2023-08-06T04:28:18;9.88;;;5.28;;
30307;SDS011;17114;52.314;8.910;2023-08-06T04:30:45;8.82;;;5.88;;
30307;SDS011;17114;52.314;8.910;2023-08-06T04:33:12;8.38;;;6.35;;
30307;SDS011;17114;52.314;8.910;2023-08-06T04:35:39;9.48;;;6.28;;
30307;SDS011;17114;52.314;8.910;2023-08-06T04:38:06;10.80;;;6.88;;
30307;SDS011;17114;52.314;8.910;2023-08-06T04:40:34;9.27;;;6.55;;
30307;SDS011;17114;52.314;8.910;2023-08-06T04:43:02;8.20;;;5.60;;
30307;SDS011;17114;52.314;8.910;2023-08-06T04:45:29;11.15;;;7.35;;
30307;SDS011;17114;52.314;8.910;2023-08-06T04:47:56;8.30;;;6.50;;
30307;SDS011;17114;52.314;8.910;2023-08-06T04:50:23;8.55;;;6.15;;
30307;SDS011;17114;52.314;8.910;2023-08-06T04:52:50;8.48;;;5.38;;
30307;SDS011;17114;52.314;8.910;2023-08-06T04:55:17;11.48;;;5.88;;
30307;SDS011;17114;52.314;8.910;2023-08-06T04:57:44;7.78;;;5.72;;
30307;SDS011;17114;52.314;8.910;2023-08-06T05:00:12;8.52;;;6.15;;
30307;SDS011;17114;52.314;8.910;2023-08-06T05:02:39;9.43;;;6.25;;
30307;SDS011;17114;52.314;8.910;2023-08-06T05:05:06;8.43;;;5.85;;
30307;SDS011;17114;52.314;8.910;2023-08-06T05:07:34;8.90;;;5.55;;
30307;SDS011;17114;52.314;8.910;2023-08-06T05:10:01;7.60;;;5.97;;
30307;SDS011;17114;52.314;8.910;2023-08-06T05:12:29;6.43;;;4.78;;
30307;SDS011;17114;52.314;8.910;2023-08-06T05:14:56;7.32;;;5.50;;
30307;SDS011;17114;52.314;8.910;2023-08-06T05:17:23;6.57;;;4.97;;
30307;SDS011;17114;52.314;8.910;2023-08-06T05:19:50;7.13;;;5.60;;
30307;SDS011;17114;52.314;8.910;2023-08-06T05:25:08;5.15;;;4.40;;
30307;SDS011;17114;52.314;8.910;2023-08-06T05:27:35;5.00;;;4.00;;
30307;SDS011;17114;52.314;8.910;2023-08-06T05:30:03;9.60;;;4.38;;
30307;SDS011;17114;52.314;8.910;2023-08-06T05:32:30;6.10;;;4.90;;
30307;SDS011;17114;52.314;8.910;2023-08-06T05:34:57;7.97;;;5.68;;
30307;SDS011;17114;52.314;8.910;2023-08-06T05:37:24;7.35;;;5.20;;
30307;SDS011;17114;52.314;8.910;2023-08-06T05:39:51;8.63;;;5.45;;
30307;SDS011;17114;52.314;8.910;2023-08-06T05:42:18;6.90;;;5.18;;
30307;SDS011;17114;52.314;8.910;2023-08-06T05:44:45;6.53;;;4.85;;
30307;SDS011;17114;52.314;8.910;2023-08-06T05:47:11;6.35;;;4.63;;
30307;SDS011;17114;52.314;8.910;2023-08-06T05:49:38;7.53;;;4.95;;
30307;SDS011;17114;52.314;8.910;2023-08-06T05:52:05;5.88;;;3.65;;
30307;SDS011;17114;52.314;8.910;2023-08-06T05:54:34;9.38;;;4.80;;
30307;SDS011;17114;52.314;8.910;2023-08-06T05:57:01;4.50;;;3.50;;
30307;SDS011;17114;52.314;8.910;2023-08-06T05:59:28;5.47;;;3.50;;
30307;SDS011;17114;52.314;8.910;2023-08-06T06:01:55;9.52;;;3.47;;
30307;SDS011;17114;52.314;8.910;2023-08-06T06:04:22;7.20;;;3.65;;
30307;SDS011;17114;52.314;8.910;2023-08-06T06:06:49;7.35;;;4.00;;
30307;SDS011;17114;52.314;8.910;2023-08-06T06:09:16;4.82;;;4.00;;
30307;SDS011;17114;52.314;8.910;2023-08-06T06:11:42;4.90;;;3.88;;
30307;SDS011;17114;52.314;8.910;2023-08-06T06:14:09;5.43;;;4.18;;
30307;SDS011;17114;52.314;8.910;2023-08-06T06:16:36;5.88;;;3.80;;
30307;SDS011;17114;52.314;8.910;2023-08-06T06:19:03;5.18;;;4.28;;
30307;SDS011;17114;52.314;8.910;2023-08-06T06:21:30;6.20;;;4.78;;
30307;SDS011;17114;52.314;8.910;2023-08-06T06:23:57;7.53;;;4.05;;
30307;SDS011;17114;52.314;8.910;2023-08-06T06:26:24;7.93;;;4.25;;
30307;SDS011;17114;52.314;8.910;2023-08-06T06:28:51;5.07;;;4.20;;
30307;SDS011;17114;52.314;8.910;2023-08-06T06:31:17;6.32;;;4.10;;
30307;SDS011;17114;52.314;8.910;2023-08-06T06:33:44;5.80;;;3.70;;
30307;SDS011;17114;52.314;8.910;2023-08-06T06:36:11;7.72;;;3.70;;
30307;SDS011;17114;52.314;8.910;2023-08-06T06:38:38;4.07;;;3.60;;
30307;SDS011;17114;52.314;8.910;2023-08-06T06:41:05;5.00;;;3.10;;
30307;SDS011;17114;52.314;8.910;2023-08-06T06:43:32;4.85;;;2.42;;
30307;SDS011;17114;52.314;8.910;2023-08-06T06:45:59;6.47;;;2.65;;
30307;SDS011;17114;52.314;8.910;2023-08-06T06:48:27;6.82;;;3.05;;
30307;SDS011;17114;52.314;8.910;2023-08-06T06:50:58;3.78;;;3.33;;
30307;SDS011;17114;52.314;8.910;2023-08-06T06:53:25;5.28;;;3.13;;
30307;SDS011;17114;52.314;8.910;2023-08-06T06:55:56;4.00;;;3.00;;
30307;SDS011;17114;52.314;8.910;2023-08-06T06:58:27;4.88;;;2.90;;
30307;SDS011;17114;52.314;8.910;2023-08-06T07:00:54;5.35;;;3.20;;
30307;SDS011;17114;52.314;8.910;2023-08-06T07:03:21;6.50;;;3.08;;
30307;SDS011;17114;52.314;8.910;2023-08-06T07:05:49;4.15;;;2.95;;
30307;SDS011;17114;52.314;8.910;2023-08-06T07:08:16;4.78;;;2.60;;
30307;SDS011;17114;52.314;8.910;2023-08-06T07:10:43;3.80;;;2.40;;
30307;SDS011;17114;52.314;8.910;2023-08-06T07:13:10;3.75;;;2.60;;
30307;SDS011;17114;52.314;8.910;2023-08-06T07:15:37;4.65;;;2.50;;
30307;SDS011;17114;52.314;8.910;2023-08-06T07:18:04;4.05;;;2.40;;
30307;SDS011;17114;52.314;8.910;2023-08-06T07:20:31;4.38;;;2.83;;
30307;SDS011;17114;52.314;8.910;2023-08-06T07:23:00;4.00;;;3.10;;
30307;SDS011;17114;52.314;8.910;2023-08-06T07:25:27;4.82;;;3.08;;
30307;SDS011;17114;52.314;8.910;2023-08-06T07:27:54;3.53;;;2.60;;
30307;SDS011;17114;52.314;8.910;2023-08-06T07:30:23;3.78;;;2.15;;
30307;SDS011;17114;52.314;8.910;2023-08-06T07:32:49;3.38;;;2.30;;
30307;SDS011;17114;52.314;8.910;2023-08-06T07:35:16;8.68;;;2.13;;
30307;SDS011;17114;52.314;8.910;2023-08-06T07:37:43;3.60;;;2.22;;
30307;SDS011;17114;52.314;8.910;2023-08-06T07:40:10;2.13;;;1.60;;
30307;SDS011;17114;52.314;8.910;2023-08-06T07:42:37;2.25;;;1.83;;
30307;SDS011;17114;52.314;8.910;2023-08-06T07:45:04;3.90;;;2.28;;
30307;SDS011;17114;52.314;8.910;2023-08-06T07:47:32;3.63;;;1.98;;
30307;SDS011;17114;52.314;8.910;2023-08-06T07:49:58;4.80;;;2.10;;
30307;SDS011;17114;52.314;8.910;2023-08-06T07:52:25;3.22;;;1.85;;
30307;SDS011;17114;52.314;8.910;2023-08-06T07:54:52;3.33;;;1.90;;
30307;SDS011;17114;52.314;8.910;2023-08-06T07:57:19;4.72;;;2.03;;
30307;SDS011;17114;52.314;8.910;2023-08-06T07:59:46;2.25;;;1.80;;
30307;SDS011;17114;52.314;8.910;2023-08-06T08:02:13;2.17;;;1.90;;
30307;SDS011;17114;52.314;8.910;2023-08-06T08:04:39;3.50;;;2.03;;
30307;SDS011;17114;52.314;8.910;2023-08-06T08:07:06;5.13;;;2.05;;
30307;SDS011;17114;52.314;8.910;2023-08-06T08:09:36;3.03;;;2.05;;
30307;SDS011;17114;52.314;8.910;2023-08-06T08:12:02;3.05;;;2.08;;
30307;SDS011;17114;52.314;8.910;2023-08-06T08:14:30;3.90;;;2.10;;
30307;SDS011;17114;52.314;8.910;2023-08-06T08:17:02;3.63;;;1.83;;
30307;SDS011;17114;52.314;8.910;2023-08-06T08:19:29;3.35;;;2.00;;
30307;SDS011;17114;52.314;8.910;2023-08-06T08:21:57;3.20;;;2.08;;
30307;SDS011;17114;52.314;8.910;2023-08-06T08:24:24;4.55;;;1.95;;
30307;SDS011;17114;52.314;8.910;2023-08-06T08:26:52;3.15;;;1.80;;
30307;SDS011;17114;52.314;8.910;2023-08-06T08:29:19;3.15;;;1.77;;
30307;SDS011;17114;52.314;8.910;2023-08-06T08:31:47;3.53;;;1.85;;
30307;SDS011;17114;52.314;8.910;2023-08-06T08:34:18;3.05;;;1.80;;
30307;SDS011;17114;52.314;8.910;2023-08-06T08:36:48;2.38;;;1.90;;
30307;SDS011;17114;52.314;8.910;2023-08-06T08:39:16;2.65;;;1.90;;
30307;SDS011;17114;52.314;8.910;2023-08-06T08:41:43;3.63;;;2.30;;
30307;SDS011;17114;52.314;8.910;2023-08-06T08:44:09;2.80;;;1.83;;
30307;SDS011;17114;52.314;8.910;2023-08-06T08:46:40;3.42;;;1.65;;
30307;SDS011;17114;52.314;8.910;2023-08-06T08:49:08;3.72;;;2.28;;
30307;SDS011;17114;52.314;8.910;2023-08-06T08:51:35;4.20;;;1.92;;
30307;SDS011;17114;52.314;8.910;2023-08-06T08:54:03;3.10;;;2.08;;
30307;SDS011;17114;52.314;8.910;2023-08-06T08:56:33;2.42;;;1.90;;
30307;SDS011;17114;52.314;8.910;2023-08-06T08:59:00;2.25;;;1.70;;
30307;SDS011;17114;52.314;8.910;2023-08-06T09:01:27;3.03;;;1.92;;
30307;SDS011;17114;52.314;8.910;2023-08-06T09:03:55;3.72;;;1.95;;
30307;SDS011;17114;52.314;8.910;2023-08-06T09:06:24;2.83;;;2.00;;
30307;SDS011;17114;52.314;8.910;2023-08-06T09:08:59;2.40;;;1.90;;
30307;SDS011;17114;52.314;8.910;2023-08-06T09:11:33;4.28;;;2.00;;
30307;SDS011;17114;52.314;8.910;2023-08-06T09:14:11;2.63;;;1.70;;
30307;SDS011;17114;52.314;8.910;2023-08-06T09:16:38;1.92;;;1.70;;
30307;SDS011;17114;52.314;8.910;2023-08-06T09:19:08;3.20;;;2.03;;
30307;SDS011;17114;52.314;8.910;2023-08-06T09:21:37;3.08;;;2.00;;
30307;SDS011;17114;52.314;8.910;2023-08-06T09:24:08;3.05;;;1.80;;
30307;SDS011;17114;52.314;8.910;2023-08-06T09:26:37;3.00;;;1.90;;
30307;SDS011;17114;52.314;8.910;2023-08-06T09:29:05;2.10;;;1.55;;
30307;SDS011;17114;52.314;8.910;2023-08-06T09:34:20;2.40;;;1.60;;
30307;SDS011;17114;52.314;8.910;2023-08-06T09:36:51;3.90;;;1.92;;
30307;SDS011;17114;52.314;8.910;2023-08-06T09:39:26;2.40;;;1.70;;
30307;SDS011;17114;52.314;8.910;2023-08-06T09:41:58;4.23;;;1.90;;
30307;SDS011;17114;52.314;8.910;2023-08-06T09:44:26;4.53;;;2.22;;
30307;SDS011;17114;52.314;8.910;2023-08-06T09:46:55;3.50;;;2.17;;
30307;SDS011;17114;52.314;8.910;2023-08-06T09:49:27;4.50;;;2.35;;
30307;SDS011;17114;52.314;8.910;2023-08-06T09:52:06;7.75;;;2.30;;
30307;SDS011;17114;52.314;8.910;2023-08-06T09:54:37;3.40;;;2.17;;
30307;SDS011;17114;52.314;8.910;2023-08-06T09:57:04;2.60;;;2.20;;
30307;SDS011;17114;52.314;8.910;2023-08-06T09:59:32;3.42;;;2.30;;
30307;SDS011;17114;52.314;8.910;2023-08-06T10:02:00;2.67;;;1.90;;
30307;SDS011;17114;52.314;8.910;2023-08-06T10:04:28;1.90;;;1.70;;
30307;SDS011;17114;52.314;8.910;2023-08-06T10:07:06;3.45;;;2.17;;
30307;SDS011;17114;52.314;8.910;2023-08-06T10:09:33;5.25;;;2.22;;
30307;SDS011;17114;52.314;8.910;2023-08-06T10:12:00;4.03;;;2.15;;
30307;SDS011;17114;52.314;8.910;2023-08-06T10:14:32;2.95;;;1.92;;
30307;SDS011;17114;52.314;8.910;2023-08-06T10:17:01;3.05;;;2.10;;
30307;SDS011;17114;52.314;8.910;2023-08-06T10:19:29;3.45;;;2.03;;
30307;SDS011;17114;52.314;8.910;2023-08-06T10:22:16;5.93;;;2.97;;
30307;SDS011;17114;52.314;8.910;2023-08-06T10:24:49;4.50;;;2.42;;
30307;SDS011;17114;52.314;8.910;2023-08-06T10:27:36;2.60;;;2.20;;
30307;SDS011;17114;52.314;8.910;2023-08-06T10:33:11;4.43;;;2.35;;
30307;SDS011;17114;52.314;8.910;2023-08-06T10:35:42;3.78;;;2.10;;
30307;SDS011;17114;52.314;8.910;2023-08-06T10:43:29;2.80;;;2.20;;
30307;SDS011;17114;52.314;8.910;2023-08-06T10:46:01;4.15;;;2.33;;
30307;SDS011;17114;52.314;8.910;2023-08-06T10:48:32;7.18;;;2.80;;
30307;SDS011;17114;52.314;8.910;2023-08-06T10:51:07;4.22;;;2.78;;
30307;SDS011;17114;52.314;8.910;2023-08-06T10:53:41;4.70;;;2.40;;
30307;SDS011;17114;52.314;8.910;2023-08-06T10:56:16;3.97;;;2.38;;
30307;SDS011;17114;52.314;8.910;2023-08-06T11:01:12;5.05;;;2.75;;
30307;SDS011;17114;52.314;8.910;2023-08-06T11:03:39;5.70;;;2.75;;
30307;SDS011;17114;52.314;8.910;2023-08-06T11:06:07;6.30;;;2.65;;
30307;SDS011;17114;52.314;8.910;2023-08-06T11:08:36;4.75;;;2.88;;
30307;SDS011;17114;52.314;8.910;2023-08-06T11:11:11;4.43;;;2.55;;
30307;SDS011;17114;52.314;8.910;2023-08-06T11:13:42;3.55;;;2.83;;
30307;SDS011;17114;52.314;8.910;2023-08-06T11:16:16;6.05;;;2.80;;
30307;SDS011;17114;52.314;8.910;2023-08-06T11:18:45;4.97;;;2.65;;
30307;SDS011;17114;52.314;8.910;2023-08-06T11:21:12;4.07;;;3.10;;
30307;SDS011;17114;52.314;8.910;2023-08-06T11:23:40;4.30;;;2.80;;
30307;SDS011;17114;52.314;8.910;2023-08-06T11:26:07;3.60;;;2.80;;
30307;SDS011;17114;52.314;8.910;2023-08-06T11:28:34;5.32;;;2.72;;
30307;SDS011;17114;52.314;8.910;2023-08-06T11:31:01;4.72;;;2.88;;
30307;SDS011;17114;52.314;8.910;2023-08-06T11:33:30;5.80;;;3.40;;
30307;SDS011;17114;52.314;8.910;2023-08-06T11:35:58;4.75;;;3.20;;
30307;SDS011;17114;52.314;8.910;2023-08-06T11:38:27;3.85;;;3.10;;
30307;SDS011;17114;52.314;8.910;2023-08-06T11:40:55;4.55;;;3.10;;
30307;SDS011;17114;52.314;8.910;2023-08-06T11:43:22;6.20;;;2.92;;
30307;SDS011;17114;52.314;8.910;2023-08-06T11:45:49;4.63;;;3.10;;
30307;SDS011;17114;52.314;8.910;2023-08-06T11:48:17;6.18;;;3.35;;
30307;SDS011;17114;52.314;8.910;2023-08-06T11:50:44;3.63;;;2.90;;
30307;SDS011;17114;52.314;8.910;2023-08-06T11:53:12;4.38;;;2.40;;
30307;SDS011;17114;52.314;8.910;2023-08-06T11:55:41;3.30;;;1.83;;
30307;SDS011;17114;52.314;8.910;2023-08-06T11:58:09;2.20;;;1.50;;
30307;SDS011;17114;52.314;8.910;2023-08-06T12:00:41;3.88;;;1.70;;
30307;SDS011;17114;52.314;8.910;2023-08-06T12:03:09;2.42;;;2.10;;
30307;SDS011;17114;52.314;8.910;2023-08-06T12:05:37;3.30;;;1.73;;
30307;SDS011;17114;52.314;8.910;2023-08-06T12:08:05;2.80;;;2.03;;
30307;SDS011;17114;52.314;8.910;2023-08-06T12:10:32;2.83;;;1.90;;
30307;SDS011;17114;52.314;8.910;2023-08-06T12:12:59;3.15;;;1.95;;
30307;SDS011;17114;52.314;8.910;2023-08-06T12:15:26;2.90;;;1.70;;
30307;SDS011;17114;52.314;8.910;2023-08-06T12:17:55;2.80;;;1.88;;
30307;SDS011;17114;52.314;8.910;2023-08-06T12:20:22;6.90;;;2.17;;
30307;SDS011;17114;52.314;8.910;2023-08-06T12:22:48;3.67;;;1.85;;
30307;SDS011;17114;52.314;8.910;2023-08-06T12:25:15;2.78;;;1.80;;
30307;SDS011;17114;52.314;8.910;2023-08-06T12:27:44;2.45;;;1.90;;
30307;SDS011;17114;52.314;8.910;2023-08-06T12:30:12;3.60;;;1.98;;
30307;SDS011;17114;52.314;8.910;2023-08-06T12:32:39;3.28;;;2.10;;
30307;SDS011;17114;52.314;8.910;2023-08-06T12:35:07;3.08;;;2.00;;
30307;SDS011;17114;52.314;8.910;2023-08-06T12:37:34;2.00;;;1.70;;
30307;SDS011;17114;52.314;8.910;2023-08-06T12:40:02;2.50;;;2.08;;
30307;SDS011;17114;52.314;8.910;2023-08-06T12:42:52;2.45;;;1.73;;
30307;SDS011;17114;52.314;8.910;2023-08-06T12:45:19;2.70;;;1.58;;
30307;SDS011;17114;52.314;8.910;2023-08-06T12:47:49;2.20;;;1.70;;
30307;SDS011;17114;52.314;8.910;2023-08-06T12:50:16;3.20;;;1.70;;
30307;SDS011;17114;52.314;8.910;2023-08-06T12:52:44;2.70;;;1.80;;
30307;SDS011;17114;52.314;8.910;2023-08-06T12:55:11;2.15;;;1.70;;
30307;SDS011;17114;52.314;8.910;2023-08-06T12:57:37;2.47;;;1.77;;
30307;SDS011;17114;52.314;8.910;2023-08-06T13:00:21;1.92;;;1.48;;
30307;SDS011;17114;52.314;8.910;2023-08-06T13:02:47;2.78;;;1.75;;
30307;SDS011;17114;52.314;8.910;2023-08-06T13:05:15;2.53;;;1.48;;
30307;SDS011;17114;52.314;8.910;2023-08-06T13:07:41;1.70;;;1.42;;
30307;SDS011;17114;52.314;8.910;2023-08-06T13:10:08;2.65;;;1.25;;
30307;SDS011;17114;52.314;8.910;2023-08-06T13:12:35;2.78;;;1.58;;
30307;SDS011;17114;52.314;8.910;2023-08-06T13:15:02;2.22;;;1.52;;
30307;SDS011;17114;52.314;8.910;2023-08-06T13:17:29;1.73;;;1.40;;
30307;SDS011;17114;52.314;8.910;2023-08-06T13:19:58;1.60;;;1.50;;
30307;SDS011;17114;52.314;8.910;2023-08-06T13:22:25;3.40;;;1.60;;
30307;SDS011;17114;52.314;8.910;2023-08-06T13:24:52;4.97;;;1.75;;
30307;SDS011;17114;52.314;8.910;2023-08-06T13:27:19;2.65;;;1.80;;
30307;SDS011;17114;52.314;8.910;2023-08-06T13:29:46;4.28;;;2.08;;
30307;SDS011;17114;52.314;8.910;2023-08-06T13:32:13;4.55;;;2.42;;
30307;SDS011;17114;52.314;8.910;2023-08-06T13:34:40;5.63;;;2.30;;
30307;SDS011;17114;52.314;8.910;2023-08-06T13:37:07;2.28;;;1.63;;
30307;SDS011;17114;52.314;8.910;2023-08-06T13:39:34;2.30;;;1.80;;
30307;SDS011;17114;52.314;8.910;2023-08-06T13:42:01;3.38;;;2.53;;
30307;SDS011;17114;52.314;8.910;2023-08-06T13:44:27;3.83;;;2.20;;
30307;SDS011;17114;52.314;8.910;2023-08-06T13:46:55;4.05;;;2.70;;
30307;SDS011;17114;52.314;8.910;2023-08-06T13:49:22;2.95;;;2.50;;
30307;SDS011;17114;52.314;8.910;2023-08-06T13:51:49;3.58;;;2.30;;
30307;SDS011;17114;52.314;8.910;2023-08-06T13:54:16;2.88;;;2.22;;
30307;SDS011;17114;52.314;8.910;2023-08-06T13:56:43;4.05;;;2.10;;
30307;SDS011;17114;52.314;8.910;2023-08-06T13:59:09;2.45;;;2.00;;
30307;SDS011;17114;52.314;8.910;2023-08-06T14:01:39;2.05;;;1.70;;
30307;SDS011;17114;52.314;8.910;2023-08-06T14:04:17;3.45;;;1.70;;
30307;SDS011;17114;52.314;8.910;2023-08-06T14:06:43;2.65;;;1.80;;
30307;SDS011;17114;52.314;8.910;2023-08-06T14:09:10;3.58;;;1.67;;
30307;SDS011;17114;52.314;8.910;2023-08-06T14:11:40;2.20;;;2.00;;
30307;SDS011;17114;52.314;8.910;2023-08-06T14:14:07;4.22;;;2.20;;
30307;SDS011;17114;52.314;8.910;2023-08-06T14:16:34;7.57;;;2.50;;
30307;SDS011;17114;52.314;8.910;2023-08-06T14:19:01;3.22;;;2.33;;
30307;SDS011;17114;52.314;8.910;2023-08-06T14:21:28;4.60;;;2.40;;
30307;SDS011;17114;52.314;8.910;2023-08-06T14:23:55;3.83;;;2.50;;
30307;SDS011;17114;52.314;8.910;2023-08-06T14:26:22;2.97;;;2.65;;
30307;SDS011;17114;52.314;8.910;2023-08-06T14:28:49;2.92;;;2.05;;
30307;SDS011;17114;52.314;8.910;2023-08-06T14:31:20;3.80;;;2.60;;
30307;SDS011;17114;52.314;8.910;2023-08-06T14:33:47;2.33;;;2.10;;
30307;SDS011;17114;52.314;8.910;2023-08-06T14:36:14;3.83;;;2.00;;
30307;SDS011;17114;52.314;8.910;2023-08-06T14:38:41;4.05;;;2.35;;
30307;SDS011;17114;52.314;8.910;2023-08-06T14:41:23;2.33;;;1.92;;
30307;SDS011;17114;52.314;8.910;2023-08-06T14:43:50;3.33;;;2.20;;
30307;SDS011;17114;52.314;8.910;2023-08-06T14:46:18;2.58;;;2.00;;
30307;SDS011;17114;52.314;8.910;2023-08-06T14:48:45;2.90;;;1.90;;
30307;SDS011;17114;52.314;8.910;2023-08-06T14:51:11;3.40;;;2.08;;
30307;SDS011;17114;52.314;8.910;2023-08-06T14:53:38;3.38;;;2.25;;
30307;SDS011;17114;52.314;8.910;2023-08-06T14:56:05;2.83;;;2.00;;
30307;SDS011;17114;52.314;8.910;2023-08-06T14:58:32;2.92;;;2.17;;
30307;SDS011;17114;52.314;8.910;2023-08-06T15:00:59;3.88;;;2.05;;
30307;SDS011;17114;52.314;8.910;2023-08-06T15:03:26;2.78;;;2.20;;
30307;SDS011;17114;52.314;8.910;2023-08-06T15:05:54;3.45;;;2.45;;
30307;SDS011;17114;52.314;8.910;2023-08-06T15:08:21;3.53;;;2.67;;
30307;SDS011;17114;52.314;8.910;2023-08-06T15:10:54;3.33;;;2.50;;
30307;SDS011;17114;52.314;8.910;2023-08-06T15:13:21;4.45;;;3.10;;
30307;SDS011;17114;52.314;8.910;2023-08-06T15:15:49;6.13;;;3.40;;